Terminal Aerodrome Forecast
Issued by NWS Louisville, KY

Home | Current Version | Previous Version | Text Only | Print | Product List | Glossary On
Versions: 1 2 3 4 5 6 7 8 9 10 11 12 13 14
000
FTUS43 KLMK 221120
TAFLEX
TAF
KLEX 221120Z 2212/2312 15006KT P6SM FEW120
     FM221500 17014G20KT P6SM FEW100
     FM222300 15006KT P6SM SCT080
     FM230500 16010KT P6SM SCT050 BKN100 PROB30 2305/2309 5SM -SHRA
      BKN050
     FM230900 15007KT 6SM -SHRA BKN050=

USA.gov is the U.S. government's official web portal to all federal, state and local government web resources and services.